Time;durP1;ratioP1;P1;durP2;ratioP2;P2;SDS_P1;SDS_P2;PMS_P1;PMS_P2;Temp;Humidity;BMP_temperature;BMP_pressure;BME280_temperature;BME280_humidity;BME280_pressure;Samples;Min_cycle;Max_cycle;Signal;HPM_P1;HPM_P2
2021/06/16 00:01:11;;;;;;;9.07;4.40;;;;;;;19.06;100.00;100542.59;4848828;29;20113;-77
2021/06/16 00:03:57;;;;;;;6.53;5.13;;;;;;;18.67;100.00;100527.03;4850773;29;20041;-77
2021/06/16 00:06:43;;;;;;;9.38;4.57;;;;;;;18.63;100.00;100536.09;4865250;29;20045;-76
2021/06/16 00:09:29;;;;;;;7.25;4.70;;;;;;;18.74;100.00;100548.78;4864307;29;20448;-76
2021/06/16 00:12:15;;;;;;;6.18;4.65;;;;;;;18.86;100.00;100548.97;4862518;29;20041;-77
2021/06/16 00:15:01;;;;;;;5.85;4.10;;;;;;;18.53;100.00;100542.81;4861338;29;20067;-77
2021/06/16 00:17:47;;;;;;;6.78;4.45;;;;;;;18.66;100.00;100551.00;4851316;29;20030;-77
2021/06/16 00:20:34;;;;;;;7.07;4.50;;;;;;;18.95;100.00;100547.63;4860141;29;20034;-76
2021/06/16 00:23:19;;;;;;;10.85;5.00;;;;;;;18.88;100.00;100548.88;4861220;29;20061;-76
2021/06/16 00:26:05;;;;;;;5.38;4.70;;;;;;;18.89;100.00;100545.31;4858601;29;20026;-77
2021/06/16 00:28:51;;;;;;;7.40;4.57;;;;;;;18.69;100.00;100540.22;4855636;29;20030;-76
2021/06/16 00:31:37;;;;;;;5.68;5.00;;;;;;;18.67;100.00;100544.75;4854235;29;20037;-77
2021/06/16 00:34:22;;;;;;;7.80;4.15;;;;;;;18.57;100.00;100546.19;4847524;29;20097;-77
2021/06/16 00:37:08;;;;;;;7.07;4.90;;;;;;;18.95;100.00;100556.47;4848300;29;20038;-77
2021/06/16 00:39:54;;;;;;;6.00;4.50;;;;;;;18.86;100.00;100556.09;4848260;29;20411;-77
2021/06/16 00:42:41;;;;;;;6.47;4.72;;;;;;;18.85;100.00;100557.03;4846357;29;20379;-77
2021/06/16 00:45:27;;;;;;;6.50;5.18;;;;;;;18.68;100.00;100552.63;4848596;29;20053;-78
2021/06/16 00:48:13;;;;;;;7.78;4.93;;;;;;;18.54;100.00;100556.94;4847976;29;20061;-77
2021/06/16 00:50:59;;;;;;;10.38;5.15;;;;;;;18.93;100.00;100562.81;4847868;29;20459;-78
2021/06/16 00:53:45;;;;;;;7.93;4.97;;;;;;;18.78;100.00;100559.13;4849173;29;20052;-77
2021/06/16 00:56:30;;;;;;;6.72;4.97;;;;;;;18.95;100.00;100566.22;4849624;29;20030;-77
2021/06/16 00:59:16;;;;;;;6.68;5.13;;;;;;;19.19;100.00;100554.25;4848780;29;20041;-78
2021/06/16 01:02:04;;;;;;;7.57;5.03;;;;;;;19.01;100.00;100564.09;4848152;29;20443;-77
2021/06/16 01:04:52;;;;;;;10.40;5.88;;;;;;;18.94;100.00;100567.16;4848946;29;20136;-77
2021/06/16 01:07:43;;;;;;;8.18;4.65;;;;;;;18.83;100.00;100561.56;4848269;29;20026;-78
2021/06/16 01:10:34;;;;;;;7.47;5.53;;;;;;;19.10;100.00;100576.84;4847673;29;20030;-77
2021/06/16 01:13:28;;;;;;;8.10;5.07;;;;;;;18.76;100.00;100568.13;4849101;29;20147;-77
2021/06/16 01:16:23;;;;;;;9.43;5.50;;;;;;;19.03;100.00;100569.31;4846922;29;20367;-77
2021/06/16 01:19:30;;;;;;;10.23;6.18;;;;;;;18.98;100.00;100568.72;4848971;29;20057;-77
2021/06/16 01:22:26;;;;;;;8.30;5.80;;;;;;;18.64;100.00;100574.09;4849852;29;20155;-77
2021/06/16 01:25:41;;;;;;;6.20;5.50;;;;;;;18.76;100.00;100584.91;4848665;29;20405;-77
2021/06/16 01:28:31;;;;;;;7.25;5.28;;;;;;;19.02;100.00;100578.22;4849755;29;20022;-77
2021/06/16 01:31:19;;;;;;;10.23;6.15;;;;;;;18.91;100.00;100577.94;4848683;29;20032;-77
2021/06/16 01:34:08;;;;;;;7.50;6.38;;;;;;;18.73;100.00;100579.78;4849225;29;20041;-77
2021/06/16 01:36:57;;;;;;;9.52;6.43;;;;;;;18.83;100.00;100566.88;4847015;29;20030;-77
2021/06/16 01:39:44;;;;;;;13.40;5.75;;;;;;;18.74;100.00;100570.88;4848863;29;20397;-77
2021/06/16 01:42:31;;;;;;;10.82;6.20;;;;;;;19.15;100.00;100566.84;4847352;29;20041;-78
2021/06/16 01:45:19;;;;;;;11.75;6.53;;;;;;;19.07;100.00;100568.22;4848536;29;20034;-77
2021/06/16 01:48:08;;;;;;;9.25;5.95;;;;;;;18.93;100.00;100570.75;4847272;29;20038;-77
2021/06/16 01:50:54;;;;;;;12.90;6.45;;;;;;;19.17;100.00;100569.44;4848448;29;20025;-77
2021/06/16 01:53:41;;;;;;;9.57;5.88;;;;;;;19.16;100.00;100565.03;4848477;29;20030;-77
2021/06/16 01:56:28;;;;;;;10.40;6.60;;;;;;;18.99;100.00;100562.44;4847893;29;20048;-77
2021/06/16 01:59:14;;;;;;;8.05;5.57;;;;;;;18.77;100.00;100562.75;4848278;29;20487;-76
2021/06/16 02:02:00;;;;;;;10.10;6.03;;;;;;;19.05;100.00;100572.75;4851732;29;20093;-77
2021/06/16 02:04:46;;;;;;;12.15;6.53;;;;;;;19.33;100.00;100572.97;4851597;29;20197;-77
2021/06/16 02:07:38;;;;;;;11.50;5.97;;;;;;;19.21;100.00;100577.13;4851325;29;20030;-78
2021/06/16 02:10:28;;;;;;;11.85;6.50;;;;;;;19.17;100.00;100580.91;4852366;29;20083;-76
2021/06/16 02:13:17;;;;;;;11.32;6.30;;;;;;;19.29;100.00;100583.88;4851450;29;20042;-77
2021/06/16 02:16:11;;;;;;;12.63;6.30;;;;;;;19.15;100.00;100595.19;4837347;29;20098;-77
2021/06/16 02:19:03;;;;;;;12.10;6.90;;;;;;;19.06;100.00;100591.25;4851512;29;20072;-77
2021/06/16 02:21:54;;;;;;;13.68;6.35;;;;;;;19.17;100.00;100593.34;4852457;29;20034;-76
2021/06/16 02:24:39;;;;;;;12.25;6.13;;;;;;;18.98;100.00;100590.78;4850687;29;20391;-77
2021/06/16 02:27:26;;;;;;;11.95;6.07;;;;;;;18.88;100.00;100597.56;4852738;29;20026;-76
2021/06/16 02:30:12;;;;;;;14.88;5.68;;;;;;;19.21;100.00;100595.72;4852321;29;20037;-77
2021/06/16 02:32:58;;;;;;;8.77;5.82;;;;;;;19.13;100.00;100592.63;4837613;29;20026;-77
2021/06/16 02:35:44;;;;;;;9.20;6.45;;;;;;;19.28;100.00;100598.94;4852080;29;20069;-77
2021/06/16 02:38:34;;;;;;;12.48;6.22;;;;;;;19.06;100.00;100603.69;4850349;29;20490;-76
2021/06/16 02:41:20;;;;;;;11.25;6.07;;;;;;;19.02;100.00;100605.63;4851872;29;20362;-77
2021/06/16 02:44:06;;;;;;;13.57;6.95;;;;;;;19.17;100.00;100612.78;4851226;29;20037;-77
2021/06/16 02:46:54;;;;;;;13.07;6.25;;;;;;;19.18;100.00;100619.78;4850602;29;20045;-77
2021/06/16 02:49:54;;;;;;;12.68;6.30;;;;;;;19.33;100.00;100623.44;4850122;29;20037;-77
2021/06/16 02:52:44;;;;;;;10.57;6.40;;;;;;;19.40;100.00;100624.81;4852135;29;20026;-77
2021/06/16 02:55:31;;;;;;;13.23;6.80;;;;;;;19.06;100.00;100625.75;4851748;29;20045;-76
2021/06/16 02:58:18;;;;;;;14.38;7.13;;;;;;;19.28;100.00;100632.63;4848898;29;20030;-76
2021/06/16 03:01:07;;;;;;;11.15;7.32;;;;;;;19.58;100.00;100645.09;4846389;29;20026;-77
2021/06/16 03:03:53;;;;;;;11.43;7.57;;;;;;;19.20;100.00;100646.28;4848474;29;20030;-75
2021/06/16 03:06:42;;;;;;;10.80;6.55;;;;;;;19.52;100.00;100639.25;4849305;29;20379;-76
2021/06/16 03:09:29;;;;;;;9.98;6.45;;;;;;;19.01;100.00;100645.56;4849375;29;20452;-77
2021/06/16 03:12:17;;;;;;;14.00;6.63;;;;;;;18.62;100.00;100658.25;4846533;29;20030;-76
2021/06/16 03:15:04;;;;;;;14.27;6.72;;;;;;;19.06;100.00;100662.09;4845642;29;20034;-76
2021/06/16 03:17:50;;;;;;;13.40;6.40;;;;;;;19.47;100.00;100658.09;4845754;29;20026;-75
2021/06/16 03:20:38;;;;;;;11.50;6.55;;;;;;;19.72;100.00;100650.47;4846548;29;20489;-75
2021/06/16 03:23:26;;;;;;;15.88;7.47;;;;;;;19.61;100.00;100657.34;4845394;29;20094;-75
2021/06/16 03:26:13;;;;;;;11.00;6.00;;;;;;;19.43;100.00;100661.00;4848913;29;20045;-76
2021/06/16 03:28:59;;;;;;;18.83;7.82;;;;;;;18.59;100.00;100667.22;4850301;29;20490;-77
2021/06/16 03:31:46;;;;;;;12.10;7.85;;;;;;;19.15;100.00;100666.91;4848534;29;20030;-77
2021/06/16 03:34:32;;;;;;;12.70;7.65;;;;;;;19.36;100.00;100662.28;4850291;29;20071;-77
2021/06/16 03:37:18;;;;;;;10.82;7.20;;;;;;;19.40;100.00;100654.06;4849995;29;20038;-77
2021/06/16 03:40:07;;;;;;;16.30;6.95;;;;;;;19.36;100.00;100654.31;4850477;29;20038;-77
2021/06/16 03:42:55;;;;;;;14.15;6.75;;;;;;;19.53;100.00;100656.91;4848317;29;20030;-77
2021/06/16 03:45:43;;;;;;;11.20;7.63;;;;;;;19.48;100.00;100664.28;4850089;29;20040;-78
2021/06/16 03:48:31;;;;;;;13.00;7.72;;;;;;;19.67;100.00;100657.88;4850320;29;20113;-77
2021/06/16 03:51:18;;;;;;;16.65;7.18;;;;;;;19.86;100.00;100663.88;4850767;29;20025;-77
2021/06/16 03:54:11;;;;;;;11.68;7.53;;;;;;;20.01;100.00;100663.00;4847386;29;20033;-77
2021/06/16 03:56:57;;;;;;;15.13;8.00;;;;;;;20.00;100.00;100669.25;4846562;29;20041;-77
2021/06/16 03:59:43;;;;;;;11.32;7.25;;;;;;;20.13;100.00;100677.44;4845679;29;20030;-77
2021/06/16 04:02:29;;;;;;;16.75;8.15;;;;;;;20.06;100.00;100684.88;4845026;29;20026;-77
2021/06/16 04:05:17;;;;;;;19.27;8.32;;;;;;;19.87;100.00;100678.88;4844423;29;20127;-76
2021/06/16 04:08:04;;;;;;;13.63;7.85;;;;;;;19.52;100.00;100682.63;4846328;29;20041;-75
2021/06/16 04:10:51;;;;;;;19.02;7.53;;;;;;;19.60;100.00;100692.84;4846809;29;20044;-77
2021/06/16 04:13:37;;;;;;;12.45;7.45;;;;;;;19.36;100.00;100686.22;4831683;29;20368;-78
2021/06/16 04:16:25;;;;;;;9.60;7.50;;;;;;;19.79;100.00;100690.88;4846218;29;20429;-77
2021/06/16 04:19:11;;;;;;;14.80;8.80;;;;;;;20.00;100.00;100687.88;4848289;29;20074;-77
2021/06/16 04:21:57;;;;;;;14.32;8.48;;;;;;;20.25;100.00;100693.53;4847589;29;20034;-77
2021/06/16 04:24:43;;;;;;;11.32;8.10;;;;;;;20.45;100.00;100690.59;4846761;29;20075;-78
2021/06/16 04:27:28;;;;;;;13.32;8.27;;;;;;;20.32;100.00;100689.59;4845373;29;20109;-78
2021/06/16 04:30:15;;;;;;;14.85;8.60;;;;;;;20.49;100.00;100689.47;4845668;29;20104;-78
2021/06/16 04:33:01;;;;;;;18.77;9.02;;;;;;;20.56;100.00;100687.28;4845007;29;20034;-78
2021/06/16 04:35:47;;;;;;;12.65;8.98;;;;;;;20.51;100.00;100695.56;4845543;29;20030;-77
2021/06/16 04:38:33;;;;;;;13.65;8.60;;;;;;;20.61;100.00;100694.06;4843013;29;20097;-78
2021/06/16 04:41:19;;;;;;;14.38;8.40;;;;;;;20.51;100.00;100692.03;4845421;29;20061;-78
2021/06/16 04:44:05;;;;;;;14.32;8.55;;;;;;;20.70;100.00;100698.00;4844898;29;20037;-78
2021/06/16 04:46:51;;;;;;;13.27;7.72;;;;;;;20.73;100.00;100695.16;4844442;29;20067;-77
2021/06/16 04:49:37;;;;;;;11.52;8.27;;;;;;;20.43;100.00;100688.97;4850138;29;20030;-79
2021/06/16 04:52:23;;;;;;;12.32;8.13;;;;;;;20.49;100.00;100692.13;4849969;29;20034;-79
2021/06/16 04:55:11;;;;;;;18.42;8.82;;;;;;;20.35;100.00;100692.09;4847915;29;20036;-77
2021/06/16 04:57:57;;;;;;;12.88;8.43;;;;;;;20.43;100.00;100699.63;4846670;29;20452;-77
2021/06/16 05:00:43;;;;;;;18.13;9.05;;;;;;;20.08;100.00;100722.00;4845960;29;20405;-77
2021/06/16 05:03:29;;;;;;;21.23;8.68;;;;;;;20.23;100.00;100716.75;4847931;29;20360;-76
2021/06/16 05:06:15;;;;;;;16.90;9.25;;;;;;;20.04;100.00;100716.03;4846431;29;20043;-78
2021/06/16 05:09:00;;;;;;;18.17;9.80;;;;;;;20.12;100.00;100720.94;4845371;29;20363;-78
2021/06/16 05:11:46;;;;;;;11.77;8.10;;;;;;;19.80;100.00;100722.69;4844919;29;20033;-79
2021/06/16 05:14:32;;;;;;;17.08;9.75;;;;;;;20.09;100.00;100734.41;4843007;29;20424;-77
2021/06/16 05:17:19;;;;;;;12.77;9.05;;;;;;;19.79;100.00;100725.44;4843823;29;20037;-77
2021/06/16 05:20:11;;;;;;;13.52;9.05;;;;;;;19.55;100.00;100738.28;4843796;29;20034;-77
2021/06/16 05:22:58;;;;;;;14.40;9.25;;;;;;;19.95;100.00;100736.94;4843479;29;20089;-77
2021/06/16 05:25:46;;;;;;;10.70;9.32;;;;;;;19.69;100.00;100729.56;4842860;29;20441;-77
2021/06/16 05:28:32;;;;;;;12.00;9.35;;;;;;;20.04;100.00;100734.63;4844398;29;20036;-77
2021/06/16 05:31:18;;;;;;;17.52;10.45;;;;;;;20.18;100.00;100739.22;4843965;29;20053;-77
2021/06/16 05:34:05;;;;;;;13.05;11.00;;;;;;;20.32;100.00;100750.81;4843273;29;20094;-76
2021/06/16 05:36:50;;;;;;;14.77;9.10;;;;;;;20.23;100.00;100750.47;4843419;29;20448;-77
2021/06/16 05:39:36;;;;;;;10.73;9.50;;;;;;;20.49;100.00;100750.69;4844286;29;20177;-76
2021/06/16 05:42:22;;;;;;;11.38;9.93;;;;;;;20.58;100.00;100760.78;4843994;29;20026;-76
2021/06/16 05:45:09;;;;;;;14.20;9.98;;;;;;;20.55;100.00;100779.63;4843984;29;20026;-77
2021/06/16 05:47:55;;;;;;;17.15;10.93;;;;;;;20.07;100.00;100769.06;4843305;29;20044;-77
2021/06/16 05:50:41;;;;;;;19.73;10.70;;;;;;;19.97;100.00;100770.50;4843506;29;20451;-77
2021/06/16 05:53:26;;;;;;;17.08;11.55;;;;;;;19.99;100.00;100773.06;4843632;29;20038;-76
2021/06/16 05:56:12;;;;;;;13.38;10.52;;;;;;;20.11;100.00;100769.75;4843203;29;20034;-76
2021/06/16 05:58:58;;;;;;;16.02;10.45;;;;;;;19.98;100.00;100771.34;4843046;29;20189;-76
2021/06/16 06:01:44;;;;;;;12.57;10.35;;;;;;;19.70;100.00;100777.34;4842171;29;20107;-77
2021/06/16 06:04:30;;;;;;;13.60;10.23;;;;;;;19.69;100.00;100778.25;4844001;29;20049;-77
2021/06/16 06:07:15;;;;;;;12.55;10.73;;;;;;;19.58;100.00;100775.34;4843379;29;20030;-78
2021/06/16 06:10:01;;;;;;;15.65;11.73;;;;;;;19.82;100.00;100779.34;4843857;29;20037;-77
2021/06/16 06:12:47;;;;;;;18.90;14.10;;;;;;;20.33;100.00;100778.28;4843285;29;20030;-77
2021/06/16 06:15:33;;;;;;;21.02;16.50;;;;;;;20.24;100.00;100773.44;4843495;29;20120;-77
2021/06/16 06:18:19;;;;;;;15.15;13.65;;;;;;;20.79;100.00;100766.69;4843472;29;20070;-77
2021/06/16 06:21:05;;;;;;;15.57;13.57;;;;;;;20.76;100.00;100775.72;4842546;29;20375;-78
2021/06/16 06:23:51;;;;;;;15.90;10.93;;;;;;;20.70;100.00;100775.22;4843213;29;20480;-77
2021/06/16 06:26:37;;;;;;;12.57;11.27;;;;;;;20.66;100.00;100774.53;4843140;29;20044;-78
2021/06/16 06:29:23;;;;;;;13.68;12.25;;;;;;;20.68;100.00;100775.31;4843391;29;20030;-77
2021/06/16 06:32:09;;;;;;;11.27;10.10;;;;;;;20.55;100.00;100773.44;4843542;29;20146;-77
2021/06/16 06:34:55;;;;;;;12.43;11.10;;;;;;;20.71;100.00;100774.28;4843750;29;20034;-78
2021/06/16 06:37:41;;;;;;;13.10;11.05;;;;;;;21.16;100.00;100775.13;4843066;29;20048;-79
2021/06/16 06:40:27;;;;;;;12.30;10.07;;;;;;;21.04;100.00;100773.19;4843517;29;20052;-77
2021/06/16 06:43:13;;;;;;;12.18;9.63;;;;;;;21.42;100.00;100768.22;4831181;29;20468;-75
2021/06/16 06:46:02;;;;;;;10.82;8.60;;;;;;;21.49;100.00;100773.06;4831891;29;20046;-78
2021/06/16 06:48:47;;;;;;;9.80;8.63;;;;;;;22.01;100.00;100773.38;4836235;29;20038;-77
2021/06/16 06:51:33;;;;;;;11.50;8.07;;;;;;;22.86;100.00;100783.75;4838338;29;20069;-76
2021/06/16 06:54:19;;;;;;;9.45;8.20;;;;;;;23.17;100.00;100780.72;4835534;29;20034;-76
2021/06/16 06:57:17;;;;;;;8.75;7.80;;;;;;;23.38;100.00;100775.72;4836697;29;20034;-76
2021/06/16 07:00:07;;;;;;;11.15;7.53;;;;;;;22.93;100.00;100785.06;4836802;29;20060;-77
2021/06/16 07:02:55;;;;;;;8.30;6.90;;;;;;;23.10;100.00;100790.09;4837689;29;20052;-77
2021/06/16 07:05:41;;;;;;;7.97;6.50;;;;;;;22.75;100.00;100785.44;4830253;29;20146;-77
2021/06/16 07:08:27;;;;;;;7.75;6.95;;;;;;;22.25;100.00;100786.03;4835493;29;20127;-75
2021/06/16 07:11:13;;;;;;;7.63;6.80;;;;;;;22.18;100.00;100789.19;4836000;29;20022;-77
2021/06/16 07:13:59;;;;;;;8.02;6.82;;;;;;;22.48;100.00;100780.09;4835066;29;20129;-77
2021/06/16 07:16:51;;;;;;;9.07;7.93;;;;;;;23.35;100.00;100790.19;4835361;29;20117;-77
2021/06/16 07:19:37;;;;;;;9.43;7.00;;;;;;;23.29;100.00;100790.59;4838977;29;20090;-76
2021/06/16 07:22:23;;;;;;;7.90;7.10;;;;;;;23.30;100.00;100786.09;4838005;29;20033;-77
2021/06/16 07:25:09;;;;;;;9.80;7.82;;;;;;;23.17;100.00;100793.22;4838743;29;20077;-76
2021/06/16 07:27:55;;;;;;;8.90;7.50;;;;;;;22.77;100.00;100789.72;4836463;29;20038;-76
2021/06/16 07:30:41;;;;;;;10.35;8.23;;;;;;;22.73;100.00;100793.53;4838563;29;20058;-78
2021/06/16 07:33:27;;;;;;;10.10;9.07;;;;;;;22.56;100.00;100801.81;4836950;29;20046;-77
2021/06/16 07:36:13;;;;;;;10.68;8.45;;;;;;;22.39;100.00;100793.97;4837287;29;20098;-74
2021/06/16 07:38:59;;;;;;;22.05;17.33;;;;;;;23.09;100.00;100799.09;4838188;29;20340;-75
2021/06/16 07:41:45;;;;;;;9.63;8.63;;;;;;;23.20;100.00;100793.88;4838036;29;20026;-75
2021/06/16 07:44:31;;;;;;;10.82;8.98;;;;;;;23.09;100.00;100791.06;4837202;29;20044;-76
2021/06/16 07:47:17;;;;;;;10.05;8.80;;;;;;;22.61;100.00;100791.69;4834166;29;20037;-75
2021/06/16 07:50:04;;;;;;;11.02;9.68;;;;;;;22.46;100.00;100803.34;4838154;29;20077;-76
2021/06/16 07:52:50;;;;;;;12.23;9.50;;;;;;;22.44;100.00;100804.38;4837287;29;20116;-75
2021/06/16 07:55:38;;;;;;;11.50;10.25;;;;;;;22.32;100.00;100808.72;4838376;29;20044;-74
2021/06/16 07:58:25;;;;;;;11.57;10.35;;;;;;;22.09;100.00;100789.75;4834739;29;20085;-76
2021/06/16 08:01:11;;;;;;;13.40;10.48;;;;;;;22.52;100.00;100800.28;4838128;29;20438;-76
2021/06/16 08:03:57;;;;;;;11.52;9.60;;;;;;;22.76;100.00;100801.34;4836212;29;20271;-76
2021/06/16 08:06:43;;;;;;;11.13;9.40;;;;;;;23.11;100.00;100799.84;4835999;29;20050;-77
2021/06/16 08:09:32;;;;;;;8.23;7.32;;;;;;;24.24;100.00;100801.72;4837065;29;20033;-75
2021/06/16 08:12:19;;;;;;;13.10;10.23;;;;;;;24.49;100.00;100799.81;4837179;29;20030;-76
2021/06/16 08:15:06;;;;;;;10.00;8.07;;;;;;;24.71;100.00;100805.31;4837302;29;20034;-75
2021/06/16 08:17:52;;;;;;;9.55;8.45;;;;;;;23.75;100.00;100798.13;4835539;29;20105;-75
2021/06/16 08:20:39;;;;;;;11.70;8.30;;;;;;;23.92;100.00;100804.03;4836388;29;20413;-75
2021/06/16 08:23:25;;;;;;;9.98;8.55;;;;;;;23.87;100.00;100810.63;4836529;29;20050;-77
2021/06/16 08:26:12;;;;;;;11.23;8.63;;;;;;;23.98;100.00;100810.78;4835560;29;20433;-75
2021/06/16 08:28:57;;;;;;;11.05;8.38;;;;;;;23.92;100.00;100824.56;4836689;29;20161;-76
2021/06/16 08:31:43;;;;;;;9.77;8.15;;;;;;;23.91;100.00;100812.13;4837132;29;20034;-76
2021/06/16 08:34:29;;;;;;;10.70;7.50;;;;;;;24.09;100.00;100816.19;4836326;29;20499;-77
2021/06/16 08:37:15;;;;;;;9.68;7.40;;;;;;;24.80;100.00;100818.06;4835156;29;20436;-78
2021/06/16 08:40:01;;;;;;;11.40;9.18;;;;;;;24.70;100.00;100826.88;4836413;29;20052;-78
2021/06/16 08:42:47;;;;;;;9.90;6.93;;;;;;;24.31;100.00;100821.72;4837493;29;20367;-77
2021/06/16 08:45:37;;;;;;;7.70;6.90;;;;;;;24.95;100.00;100827.63;4836028;29;20062;-77
2021/06/16 08:48:23;;;;;;;8.00;7.30;;;;;;;24.68;100.00;100836.84;4839763;29;20317;-77
2021/06/16 08:51:13;;;;;;;7.53;6.55;;;;;;;24.29;100.00;100829.00;4841159;29;20069;-76
2021/06/16 08:53:59;;;;;;;8.75;6.03;;;;;;;24.00;100.00;100839.13;4843870;29;20429;-75
2021/06/16 08:56:48;;;;;;;8.55;5.90;;;;;;;23.48;100.00;100844.53;4844356;29;20053;-76
2021/06/16 08:59:34;;;;;;;9.70;5.70;;;;;;;23.71;100.00;100842.94;4843408;29;20094;-75
2021/06/16 09:02:20;;;;;;;8.75;7.78;;;;;;;23.36;100.00;100844.53;4843809;29;20034;-75
2021/06/16 09:05:07;;;;;;;8.85;5.72;;;;;;;23.43;100.00;100837.81;4843700;29;20140;-75
2021/06/16 09:07:56;;;;;;;5.93;5.32;;;;;;;23.29;100.00;100841.41;4843779;29;20110;-77
2021/06/16 09:10:48;;;;;;;11.00;6.03;;;;;;;22.97;100.00;100833.78;4844036;29;20045;-76
2021/06/16 09:13:36;;;;;;;9.25;5.82;;;;;;;23.00;100.00;100855.84;4843861;29;20094;-76
2021/06/16 09:16:28;;;;;;;7.35;6.25;;;;;;;22.76;100.00;100851.25;4843260;29;20531;-76
2021/06/16 09:19:22;;;;;;;7.65;6.80;;;;;;;22.78;100.00;100855.53;4844061;29;20042;-76
2021/06/16 09:22:08;;;;;;;8.32;7.55;;;;;;;22.86;100.00;100861.22;4842925;29;20026;-76
2021/06/16 09:24:55;;;;;;;8.93;8.02;;;;;;;22.79;100.00;100869.75;4842364;29;20064;-76
2021/06/16 09:27:44;;;;;;;9.32;7.63;;;;;;;22.07;100.00;100869.06;4842997;29;20029;-76
2021/06/16 09:30:42;;;;;;;8.80;7.93;;;;;;;22.10;100.00;100866.22;4841414;29;20025;-77
2021/06/16 09:33:28;;;;;;;10.73;8.18;;;;;;;21.80;100.00;100881.44;4839041;29;20034;-75
2021/06/16 09:36:16;;;;;;;10.70;8.18;;;;;;;21.84;100.00;100874.97;4826382;29;20625;-76
2021/06/16 09:39:09;;;;;;;10.43;8.18;;;;;;;22.21;100.00;100875.25;4838040;29;20029;-77
2021/06/16 09:42:13;;;;;;;10.73;8.35;;;;;;;22.02;100.00;100874.69;4842251;29;20057;-76
2021/06/16 09:45:02;;;;;;;9.10;8.18;;;;;;;22.52;100.00;100871.53;4842845;29;20066;-74
2021/06/16 09:47:48;;;;;;;8.73;7.70;;;;;;;22.41;100.00;100874.00;4844073;29;20459;-74
2021/06/16 09:50:33;;;;;;;8.20;6.95;;;;;;;22.12;100.00;100875.84;4850124;29;20026;-75
2021/06/16 09:53:20;;;;;;;10.77;8.02;;;;;;;22.47;100.00;100871.81;4847654;29;20034;-75
2021/06/16 09:56:16;;;;;;;8.52;6.90;;;;;;;22.47;100.00;100865.63;4843216;29;20029;-76
2021/06/16 09:59:02;;;;;;;8.85;6.63;;;;;;;22.93;100.00;100873.25;4843755;29;20041;-76
2021/06/16 10:01:55;;;;;;;8.80;6.82;;;;;;;22.66;100.00;100875.03;4843546;29;20128;-75
2021/06/16 10:04:43;;;;;;;9.05;8.15;;;;;;;23.35;100.00;100869.56;4845762;29;20034;-77
2021/06/16 10:07:38;;;;;;;7.90;7.20;;;;;;;23.86;100.00;100865.13;4841951;29;20396;-76
2021/06/16 10:10:24;;;;;;;6.75;6.15;;;;;;;24.28;100.00;100870.16;4843099;29;20066;-77
2021/06/16 10:13:10;;;;;;;6.53;5.90;;;;;;;24.89;100.00;100864.75;4841491;29;20116;-76
2021/06/16 10:15:57;;;;;;;7.13;6.22;;;;;;;24.72;100.00;100874.06;4843106;29;20464;-77
2021/06/16 10:18:44;;;;;;;6.47;5.65;;;;;;;25.64;100.00;100875.09;4843017;29;20052;-77
2021/06/16 10:21:30;;;;;;;6.22;5.55;;;;;;;25.71;100.00;100881.69;4843793;29;20038;-77
2021/06/16 10:24:16;;;;;;;6.35;5.60;;;;;;;25.20;100.00;100885.63;4846293;29;20480;-77
2021/06/16 10:27:04;;;;;;;5.57;5.07;;;;;;;25.30;100.00;100878.63;4845725;29;20090;-77
2021/06/16 10:29:52;;;;;;;6.90;5.18;;;;;;;24.99;100.00;100877.34;4847256;29;20107;-76
2021/06/16 10:32:41;;;;;;;5.82;5.32;;;;;;;25.21;100.00;100879.28;4844156;29;20057;-76
2021/06/16 10:35:36;;;;;;;6.18;5.57;;;;;;;24.80;100.00;100876.16;4846303;29;20073;-76
2021/06/16 10:38:23;;;;;;;9.45;6.07;;;;;;;24.04;100.00;100871.88;4844817;29;20463;-74
2021/06/16 10:41:10;;;;;;;6.30;5.60;;;;;;;23.80;100.00;100881.59;4845039;29;20400;-75
2021/06/16 10:44:10;;;;;;;7.13;5.97;;;;;;;23.70;100.00;100875.19;4845856;29;20086;-75
2021/06/16 10:46:57;;;;;;;7.10;5.60;;;;;;;23.35;100.00;100877.59;4845821;29;20049;-75
2021/06/16 10:49:47;;;;;;;6.07;5.50;;;;;;;23.06;100.00;100883.97;4844381;29;20018;-75
2021/06/16 10:53:03;;;;;;;6.43;5.82;;;;;;;23.65;100.00;100886.19;4843972;29;20022;-75
2021/06/16 10:55:52;;;;;;;6.85;6.18;;;;;;;23.96;100.00;100880.47;4845530;29;20067;-75
2021/06/16 10:58:45;;;;;;;8.55;7.68;;;;;;;24.14;100.00;100875.66;4844016;29;20026;-76
2021/06/16 11:01:45;;;;;;;10.70;7.47;;;;;;;24.49;100.00;100879.31;4845380;29;20034;-75
2021/06/16 11:04:31;;;;;;;6.28;5.68;;;;;;;24.47;100.00;100876.75;4844621;29;20037;-75
2021/06/16 11:07:27;;;;;;;8.65;5.90;;;;;;;25.05;100.00;100873.38;4844903;29;20038;-76
2021/06/16 11:10:13;;;;;;;8.35;5.60;;;;;;;25.64;100.00;100875.94;4844350;29;20048;-76
2021/06/16 11:12:59;;;;;;;8.48;5.90;;;;;;;25.81;100.00;100874.63;4844137;29;20236;-77
2021/06/16 11:15:45;;;;;;;5.63;4.93;;;;;;;26.04;100.00;100871.03;4845359;29;20034;-77
2021/06/16 11:18:30;;;;;;;8.25;5.38;;;;;;;25.76;100.00;100874.16;4846006;29;20030;-76
2021/06/16 11:21:17;;;;;;;16.80;5.32;;;;;;;25.45;100.00;100867.59;4843955;29;20034;-76
2021/06/16 11:24:04;;;;;;;5.85;5.22;;;;;;;24.85;100.00;100861.44;4845647;29;20089;-77
2021/06/16 11:26:51;;;;;;;9.45;5.78;;;;;;;25.40;100.00;100866.25;4846241;29;20044;-77
2021/06/16 11:30:07;;;;;;;7.47;5.50;;;;;;;26.04;100.00;100861.13;4846047;29;20037;-77
2021/06/16 11:33:11;;;;;;;6.13;4.70;;;;;;;26.29;100.00;100855.50;4845077;29;20119;-81
2021/06/16 11:36:27;;;;;;;5.72;5.22;;;;;;;26.26;100.00;100850.41;4845340;29;20075;-77
2021/06/16 11:39:20;;;;;;;14.07;11.27;;;;;;;26.50;100.00;100844.88;4844343;29;20516;-77
2021/06/16 11:42:12;;;;;;;6.47;5.85;;;;;;;25.69;100.00;100848.75;4846095;29;20036;-76
2021/06/16 11:44:58;;;;;;;5.70;5.15;;;;;;;26.23;100.00;100837.22;4846360;29;20042;-76
2021/06/16 11:47:58;;;;;;;5.75;5.22;;;;;;;26.72;100.00;100831.44;4845692;29;20026;-75
2021/06/16 11:50:44;;;;;;;7.93;5.13;;;;;;;26.00;100.00;100826.63;4845530;29;20030;-75
2021/06/16 11:53:32;;;;;;;7.28;5.13;;;;;;;24.86;100.00;100825.63;4845717;29;20034;-75
2021/06/16 11:56:17;;;;;;;15.60;10.52;;;;;;;25.50;100.00;100824.28;4845586;29;20037;-75
2021/06/16 11:59:03;;;;;;;18.52;16.38;;;;;;;25.13;100.00;100817.34;4845112;29;20034;-75
2021/06/16 12:01:49;;;;;;;15.10;11.82;;;;;;;25.44;100.00;100827.47;4844418;29;20109;-75
2021/06/16 12:05:05;;;;;;;6.57;5.75;;;;;;;24.92;100.00;100821.63;4845906;29;20042;-75
2021/06/16 12:07:53;;;;;;;7.00;5.75;;;;;;;24.46;100.00;100816.09;4843669;29;20131;-75
2021/06/16 12:10:39;;;;;;;6.97;5.55;;;;;;;24.47;100.00;100808.94;4844391;29;20030;-75
2021/06/16 12:13:24;;;;;;;12.70;6.28;;;;;;;24.06;100.00;100827.13;4845426;29;20109;-75
2021/06/16 12:16:10;;;;;;;8.20;6.65;;;;;;;23.61;100.00;100844.56;4845450;29;20375;-75
2021/06/16 12:19:19;;;;;;;9.25;6.93;;;;;;;23.64;100.00;100839.00;4845212;29;20038;-75
2021/06/16 12:22:08;;;;;;;6.93;6.22;;;;;;;24.08;100.00;100828.75;4845441;29;20034;-75
2021/06/16 12:24:54;;;;;;;7.93;5.05;;;;;;;25.18;100.00;100825.88;4844111;29;20060;-75
2021/06/16 12:27:39;;;;;;;6.97;5.53;;;;;;;25.84;100.00;100831.44;4843827;29;20053;-75
2021/06/16 12:30:28;;;;;;;5.88;4.97;;;;;;;26.13;100.00;100830.03;4843967;29;20030;-75
2021/06/16 12:33:23;;;;;;;5.43;4.93;;;;;;;25.98;100.00;100824.03;4843071;29;20098;-75
2021/06/16 12:36:22;;;;;;;8.70;6.22;;;;;;;25.84;100.00;100829.59;4844340;29;20030;-75
2021/06/16 12:39:16;;;;;;;11.77;5.93;;;;;;;25.71;100.00;100830.69;4844858;29;20049;-75
2021/06/16 12:42:06;;;;;;;6.25;4.68;;;;;;;25.28;100.00;100840.34;4844759;29;20030;-75
2021/06/16 12:44:52;;;;;;;5.50;5.00;;;;;;;25.29;100.00;100837.56;4844538;29;20520;-76
2021/06/16 12:47:38;;;;;;;7.35;5.07;;;;;;;25.27;100.00;100843.97;4845405;29;20041;-76